createdAt,value
2024-05-09T00:01:01.474Z,4.73
2024-05-09T00:03:31.450Z,3.87
2024-05-09T00:06:04.149Z,3.97
2024-05-09T00:08:34.195Z,3.50
2024-05-09T00:11:04.229Z,3.80
2024-05-09T00:13:34.178Z,3.47
2024-05-09T00:16:04.148Z,3.30
2024-05-09T00:18:34.040Z,4.30
2024-05-09T00:21:07.768Z,6.20
2024-05-09T00:23:37.761Z,3.93
2024-05-09T00:26:07.923Z,3.40
2024-05-09T00:28:37.765Z,3.77
2024-05-09T00:31:07.791Z,4.53
2024-05-09T00:33:37.764Z,3.30
2024-05-09T00:36:10.726Z,3.73
2024-05-09T00:38:38.068Z,4.63
2024-05-09T00:41:08.058Z,3.87
2024-05-09T00:43:37.892Z,3.63
2024-05-09T00:46:08.189Z,3.87
2024-05-09T00:48:38.444Z,3.53
2024-05-09T00:51:11.331Z,3.60
2024-05-09T00:53:41.600Z,2.93
2024-05-09T00:56:14.735Z,3.37
2024-05-09T00:58:45.594Z,3.10
2024-05-09T01:01:15.850Z,3.33
2024-05-09T01:03:47.967Z,4.80
2024-05-09T01:06:23.384Z,4.10
2024-05-09T01:08:53.321Z,5.07
2024-05-09T01:11:23.373Z,3.50
2024-05-09T01:13:53.311Z,3.30
2024-05-09T01:16:23.170Z,3.33
2024-05-09T01:18:53.337Z,3.37
2024-05-09T01:21:25.862Z,3.20
2024-05-09T01:23:58.373Z,4.73
2024-05-09T01:26:28.321Z,3.40
2024-05-09T01:28:58.221Z,4.87
2024-05-09T01:31:28.091Z,4.50
2024-05-09T01:33:57.998Z,2.67
2024-05-09T01:36:27.942Z,3.60
2024-05-09T01:39:00.637Z,2.87
2024-05-09T01:41:30.510Z,3.70
2024-05-09T01:44:00.480Z,3.80
2024-05-09T01:46:30.319Z,3.23
2024-05-09T01:49:00.844Z,2.90
2024-05-09T01:51:31.774Z,4.50
2024-05-09T01:54:05.406Z,4.07
2024-05-09T01:56:35.262Z,3.40
2024-05-09T01:59:06.790Z,3.77
2024-05-09T02:01:55.660Z,3.57
2024-05-09T02:04:26.661Z,5.30
2024-05-09T02:06:56.592Z,3.97
2024-05-09T02:09:29.041Z,3.17
2024-05-09T02:11:59.062Z,2.90
2024-05-09T02:14:29.047Z,3.37
2024-05-09T02:16:58.963Z,3.63
2024-05-09T02:19:29.068Z,4.23
2024-05-09T02:21:58.931Z,3.80
2024-05-09T02:24:31.467Z,3.60
2024-05-09T02:27:01.487Z,3.90
2024-05-09T02:29:31.521Z,3.43
2024-05-09T02:32:01.524Z,4.40
2024-05-09T02:34:31.629Z,3.33
2024-05-09T02:37:01.460Z,3.73
2024-05-09T02:39:31.305Z,6.43
2024-05-09T02:42:01.098Z,5.13
2024-05-09T02:44:28.566Z,3.97
2024-05-09T02:46:58.476Z,3.67
2024-05-09T02:49:25.920Z,4.73
2024-05-09T02:51:55.762Z,5.43
2024-05-09T02:54:23.025Z,4.63
2024-05-09T02:56:55.474Z,5.30
2024-05-09T02:59:22.948Z,3.40
2024-05-09T03:01:53.064Z,6.13
2024-05-09T03:04:20.358Z,5.47
2024-05-09T03:06:50.208Z,4.17
2024-05-09T03:09:17.490Z,4.20
2024-05-09T03:11:47.467Z,3.37
2024-05-09T03:14:19.981Z,3.67
2024-05-09T03:16:49.966Z,4.20
2024-05-09T03:19:17.466Z,4.63
2024-05-09T03:21:47.416Z,4.67
2024-05-09T03:24:14.593Z,9.07
2024-05-09T03:26:44.497Z,5.23
2024-05-09T03:29:11.778Z,4.67
2024-05-09T03:31:44.618Z,3.83
2024-05-09T03:34:12.153Z,5.60
2024-05-09T03:36:44.733Z,7.03
2024-05-09T03:39:14.758Z,7.17
2024-05-09T03:41:44.652Z,4.23
2024-05-09T03:44:11.959Z,6.33
2024-05-09T03:46:44.587Z,4.17
2024-05-09T03:49:12.110Z,5.23
2024-05-09T03:51:42.170Z,7.17
2024-05-09T03:54:09.402Z,4.97
2024-05-09T03:56:39.291Z,5.43
2024-05-09T03:59:06.636Z,4.10
2024-05-09T04:01:36.544Z,4.70
2024-05-09T04:04:06.987Z,5.03
2024-05-09T04:06:36.883Z,6.20
2024-05-09T04:09:05.310Z,4.37
2024-05-09T04:11:35.785Z,6.77
2024-05-09T04:14:03.131Z,5.77
2024-05-09T04:16:32.975Z,5.07
2024-05-09T04:19:00.204Z,6.17
2024-05-09T04:21:32.666Z,4.33
2024-05-09T04:23:59.878Z,5.30
2024-05-09T04:26:29.887Z,4.53
2024-05-09T04:28:57.163Z,8.77
2024-05-09T04:31:29.363Z,5.97
2024-05-09T04:33:56.662Z,5.00
2024-05-09T04:36:26.587Z,6.67
2024-05-09T04:38:56.395Z,4.87
2024-05-09T04:41:26.890Z,6.33
2024-05-09T04:43:54.270Z,4.07
2024-05-09T04:46:24.188Z,4.23
2024-05-09T04:48:51.536Z,4.50
2024-05-09T04:51:24.478Z,5.43
2024-05-09T04:53:51.769Z,6.33
2024-05-09T04:56:24.347Z,5.87
2024-05-09T04:58:51.823Z,4.20
2024-05-09T05:01:21.756Z,4.60
2024-05-09T05:03:49.177Z,6.27
2024-05-09T05:06:19.146Z,5.20
2024-05-09T05:08:46.337Z,5.87
2024-05-09T05:11:16.270Z,4.67
2024-05-09T05:13:46.223Z,4.87
2024-05-09T05:16:16.136Z,6.23
2024-05-09T05:18:44.527Z,6.87
2024-05-09T05:21:14.764Z,7.07
2024-05-09T05:23:42.109Z,5.80
2024-05-09T05:26:11.977Z,4.70
2024-05-09T05:28:39.177Z,3.77
2024-05-09T05:31:11.675Z,3.97
2024-05-09T05:33:39.238Z,3.20
2024-05-09T05:36:09.958Z,3.83
2024-05-09T05:38:37.266Z,6.50
2024-05-09T05:41:07.474Z,7.13
2024-05-09T05:43:34.690Z,5.13
2024-05-09T05:46:04.571Z,4.10
2024-05-09T05:48:34.556Z,3.60
2024-05-09T05:51:05.687Z,4.90
2024-05-09T05:53:33.357Z,5.73
2024-05-09T05:56:03.460Z,3.97
2024-05-09T05:58:30.719Z,5.23
2024-05-09T06:01:00.566Z,9.37
2024-05-09T06:03:29.361Z,6.37
2024-05-09T06:06:05.520Z,3.93
2024-05-09T06:08:32.895Z,5.50
2024-05-09T06:11:02.885Z,6.60
2024-05-09T06:13:30.147Z,3.67
2024-05-09T06:16:00.767Z,4.30
2024-05-09T06:18:28.292Z,6.17
2024-05-09T06:21:01.040Z,4.13
2024-05-09T06:23:28.377Z,3.53
2024-05-09T06:25:58.346Z,4.00
2024-05-09T06:28:25.606Z,6.10
2024-05-09T06:30:55.425Z,5.40
2024-05-09T06:33:22.805Z,6.20
2024-05-09T06:35:54.389Z,4.73
2024-05-09T06:38:24.343Z,5.50
2024-05-09T06:40:54.225Z,3.97
2024-05-09T06:43:21.547Z,3.87
2024-05-09T06:45:52.772Z,3.17
2024-05-09T06:48:21.258Z,5.37
2024-05-09T06:50:52.395Z,4.20
2024-05-09T06:53:24.059Z,3.47
2024-05-09T06:55:54.129Z,5.80
2024-05-09T06:58:21.484Z,5.00
2024-05-09T07:00:51.402Z,3.47
2024-05-09T07:03:19.613Z,3.47
2024-05-09T07:05:50.177Z,5.20
2024-05-09T07:08:17.791Z,4.40
2024-05-09T07:10:50.642Z,3.20
2024-05-09T07:13:18.055Z,4.57
2024-05-09T07:15:47.921Z,2.83
2024-05-09T07:18:17.713Z,2.87
2024-05-09T07:20:50.145Z,2.80
2024-05-09T07:23:18.206Z,4.53
2024-05-09T07:25:50.916Z,3.07
2024-05-09T07:28:20.552Z,3.07
2024-05-09T07:30:50.623Z,5.93
2024-05-09T07:33:20.222Z,3.10
2024-05-09T07:35:51.685Z,3.60
2024-05-09T07:38:19.264Z,3.47
2024-05-09T07:40:51.948Z,3.83
2024-05-09T07:43:19.258Z,3.63
2024-05-09T07:45:53.699Z,2.87
2024-05-09T07:52:39.379Z,4.20
2024-05-09T07:53:48.832Z,4.67
2024-05-09T07:56:25.660Z,4.80
2024-05-09T07:58:53.763Z,2.87
2024-05-09T08:03:53.523Z,4.40
2024-05-09T08:06:23.645Z,2.83
2024-05-09T08:08:50.884Z,3.97
2024-05-09T08:11:20.885Z,5.30
2024-05-09T08:13:50.797Z,2.30
2024-05-09T08:16:20.693Z,3.97
2024-05-09T08:18:47.988Z,2.53
2024-05-09T08:21:19.305Z,2.70
2024-05-09T08:23:46.575Z,5.93
2024-05-09T08:26:16.402Z,3.07
2024-05-09T08:28:43.617Z,4.17
2024-05-09T08:31:16.176Z,3.17
2024-05-09T08:33:47.752Z,3.90
2024-05-09T08:36:18.055Z,5.03
2024-05-09T08:38:45.270Z,4.57
2024-05-09T08:41:17.179Z,3.85
2024-05-09T08:43:44.925Z,4.30
2024-05-09T08:46:18.697Z,4.38
2024-05-09T08:48:48.341Z,3.15
2024-05-09T08:51:18.444Z,4.00
2024-05-09T08:53:45.765Z,3.15
2024-05-09T08:56:17.545Z,3.30
2024-05-09T08:58:45.478Z,3.78
2024-05-09T09:01:19.002Z,3.65
2024-05-09T09:03:47.733Z,4.47
2024-05-09T09:06:19.628Z,5.35
2024-05-09T09:08:47.599Z,7.18
2024-05-09T09:11:17.473Z,3.13
2024-05-09T09:13:44.755Z,5.43
2024-05-09T09:16:17.354Z,2.45
2024-05-09T09:18:45.942Z,3.22
2024-05-09T09:21:15.982Z,2.95
2024-05-09T09:23:43.950Z,5.00
2024-05-09T09:26:18.632Z,4.43
2024-05-09T09:28:45.877Z,4.18
2024-05-09T09:31:20.628Z,3.03
2024-05-09T09:33:48.385Z,4.30
2024-05-09T09:36:19.020Z,3.28
2024-05-09T09:38:47.668Z,4.88
2024-05-09T09:41:20.558Z,7.40
2024-05-09T09:43:48.470Z,2.60
2024-05-09T09:46:22.046Z,4.22
2024-05-09T09:48:49.650Z,3.45
2024-05-09T09:51:19.884Z,4.88
2024-05-09T09:53:49.150Z,4.30
2024-05-09T09:56:21.257Z,4.65
2024-05-09T09:58:48.987Z,3.97
2024-05-09T10:01:21.563Z,4.72
2024-05-09T10:03:49.051Z,4.32
2024-05-09T10:06:19.970Z,3.25
2024-05-09T10:08:48.334Z,4.03
2024-05-09T10:11:22.993Z,3.95
2024-05-09T10:13:51.813Z,2.70
2024-05-09T10:16:26.047Z,2.53
2024-05-09T10:18:53.555Z,2.80
2024-05-09T10:21:24.097Z,2.80
2024-05-09T10:24:00.671Z,4.13
2024-05-09T10:26:32.327Z,2.85
2024-05-09T10:29:03.328Z,2.50
2024-05-09T10:31:33.279Z,2.63
2024-05-09T10:34:03.679Z,4.18
2024-05-09T10:36:31.167Z,2.42
2024-05-09T10:39:02.726Z,3.55
2024-05-09T10:41:29.952Z,3.10
2024-05-09T10:43:59.813Z,2.42
2024-05-09T10:46:27.133Z,3.78
2024-05-09T10:49:05.298Z,3.63
2024-05-09T10:51:34.636Z,4.80
2024-05-09T10:54:04.550Z,3.92
2024-05-09T10:56:31.829Z,4.40
2024-05-09T10:59:01.659Z,2.92
2024-05-09T11:01:29.243Z,2.47
2024-05-09T11:04:03.992Z,3.03
2024-05-09T11:06:31.604Z,4.75
2024-05-09T11:09:01.666Z,2.60
2024-05-09T11:11:29.352Z,3.15
2024-05-09T11:13:59.267Z,5.82
2024-05-09T11:16:26.555Z,3.42
2024-05-09T11:18:58.994Z,3.40
2024-05-09T11:21:29.338Z,4.22
2024-05-09T11:24:00.140Z,3.03
2024-05-09T11:26:29.521Z,2.90
2024-05-09T11:28:59.428Z,3.65
2024-05-09T11:31:26.860Z,2.80
2024-05-09T11:33:57.579Z,2.25
2024-05-09T11:36:24.913Z,4.30
2024-05-09T11:38:57.388Z,2.63
2024-05-09T11:41:24.706Z,2.65
2024-05-09T11:43:54.543Z,5.13
2024-05-09T11:46:21.939Z,3.70
2024-05-09T11:48:51.951Z,2.38
2024-05-09T11:51:19.247Z,4.93
2024-05-09T11:53:49.061Z,5.10
2024-05-09T11:56:18.939Z,3.22
2024-05-09T11:58:48.758Z,3.45
2024-05-09T12:01:16.019Z,5.45
2024-05-09T12:03:46.058Z,2.35
2024-05-09T12:06:13.606Z,5.00
2024-05-09T12:08:43.632Z,2.88
2024-05-09T12:11:10.947Z,2.92
2024-05-09T12:13:43.436Z,4.07
2024-05-09T12:16:10.776Z,3.30
2024-05-09T12:18:40.764Z,2.92
2024-05-09T12:21:08.002Z,3.13
2024-05-09T12:23:37.868Z,5.95
2024-05-09T12:26:05.336Z,3.50
2024-05-09T12:28:35.192Z,4.95
2024-05-09T12:31:05.331Z,2.28
2024-05-09T12:33:35.324Z,3.20
2024-05-09T12:36:02.744Z,4.25
2024-05-09T12:38:32.627Z,3.42
2024-05-09T12:41:00.005Z,2.88
2024-05-09T12:43:29.977Z,2.65
2024-05-09T12:45:57.392Z,2.67
2024-05-09T12:48:30.104Z,4.60
2024-05-09T12:50:57.836Z,2.00
2024-05-09T12:53:27.808Z,4.95
2024-05-09T12:55:59.932Z,3.33
2024-05-09T12:58:32.236Z,2.72
2024-05-09T13:00:59.578Z,4.90
2024-05-09T13:03:32.471Z,2.58
2024-05-09T13:05:59.907Z,2.88
2024-05-09T13:08:29.781Z,2.67
2024-05-09T13:10:57.198Z,2.38
2024-05-09T13:13:27.153Z,1.95
2024-05-09T13:15:54.644Z,2.20
2024-05-09T13:18:24.520Z,2.15
2024-05-09T13:20:54.338Z,2.25
2024-05-09T13:23:24.166Z,1.65
2024-05-09T13:25:51.431Z,2.85
2024-05-09T13:28:22.682Z,2.47
2024-05-09T13:30:50.046Z,4.30
2024-05-09T13:33:20.390Z,2.08
2024-05-09T13:35:50.532Z,2.85
2024-05-09T13:38:23.822Z,1.98
2024-05-09T13:40:51.226Z,3.40
2024-05-09T13:43:22.100Z,1.70
2024-05-09T13:45:49.733Z,4.78
2024-05-09T13:48:20.008Z,2.63
2024-05-09T13:50:47.529Z,2.22
2024-05-09T13:53:17.430Z,2.05
2024-05-09T13:55:47.747Z,3.05
2024-05-09T13:58:17.929Z,2.53
2024-05-09T14:00:48.808Z,2.85
2024-05-09T14:03:20.780Z,2.42
2024-05-09T14:05:50.100Z,2.97
2024-05-09T14:08:22.440Z,3.97
2024-05-09T14:10:53.735Z,2.80
2024-05-09T14:13:23.742Z,2.50
2024-05-09T14:15:51.215Z,2.53
2024-05-09T14:18:21.350Z,2.55
2024-05-09T14:20:48.638Z,4.65
2024-05-09T14:23:20.642Z,2.30
2024-05-09T14:25:51.761Z,2.65
2024-05-09T14:28:26.342Z,2.33
2024-05-09T14:30:56.431Z,2.95
2024-05-09T14:33:27.433Z,2.42
2024-05-09T14:35:57.776Z,2.38
2024-05-09T14:38:27.676Z,5.03
2024-05-09T14:40:55.344Z,2.40
2024-05-09T14:43:28.368Z,3.80
2024-05-09T14:45:56.117Z,2.97
2024-05-09T14:48:26.931Z,1.83
2024-05-09T14:50:54.562Z,2.70
2024-05-09T14:53:26.446Z,4.40
2024-05-09T14:55:53.829Z,3.35
2024-05-09T14:58:23.973Z,5.30
2024-05-09T15:00:54.144Z,2.13
2024-05-09T15:03:24.158Z,3.95
2024-05-09T15:05:52.049Z,3.27
2024-05-09T15:08:22.492Z,3.63
2024-05-09T15:10:50.657Z,2.30
2024-05-09T15:13:21.280Z,4.00
2024-05-09T15:15:49.139Z,4.00
2024-05-09T15:18:22.018Z,4.23
2024-05-09T15:20:49.506Z,4.47
2024-05-09T15:23:19.770Z,3.07
2024-05-09T15:25:47.058Z,2.20
2024-05-09T15:28:17.166Z,3.87
2024-05-09T15:30:46.545Z,3.67
2024-05-09T15:33:17.188Z,2.93
2024-05-09T15:35:50.195Z,2.57
2024-05-09T15:38:20.542Z,3.27
2024-05-09T15:40:47.938Z,3.13
2024-05-09T15:43:17.863Z,4.10
2024-05-09T15:45:45.604Z,5.07
2024-05-09T15:48:15.670Z,2.60
2024-05-09T15:50:43.473Z,3.33
2024-05-09T15:53:16.389Z,2.40
2024-05-09T15:55:43.662Z,3.07
2024-05-09T15:58:14.344Z,3.10
2024-05-09T16:00:44.801Z,3.33
2024-05-09T16:03:16.443Z,4.20
2024-05-09T16:05:44.827Z,2.53
2024-05-09T16:08:18.235Z,3.77
2024-05-09T16:10:47.400Z,3.53
2024-05-09T16:13:19.812Z,2.63
2024-05-09T16:15:47.491Z,4.03
2024-05-09T16:18:17.634Z,4.20
2024-05-09T16:20:47.460Z,3.50
2024-05-09T16:23:21.961Z,5.17
2024-05-09T16:25:51.410Z,2.93
2024-05-09T16:28:22.904Z,3.80
2024-05-09T16:30:51.192Z,4.30
2024-05-09T16:33:23.713Z,4.20
2024-05-09T16:35:51.148Z,2.93
2024-05-09T16:38:23.788Z,2.23
2024-05-09T16:40:51.228Z,2.73
2024-05-09T16:43:21.350Z,2.70
2024-05-09T16:45:48.972Z,3.33
2024-05-09T16:48:19.138Z,4.27
2024-05-09T16:50:46.399Z,2.50
2024-05-09T16:53:16.369Z,3.60
2024-05-09T16:55:46.264Z,2.10
2024-05-09T16:58:16.548Z,3.60
2024-05-09T17:00:44.591Z,2.97
2024-05-09T17:03:16.505Z,3.30
2024-05-09T17:05:46.052Z,2.83
2024-05-09T17:08:18.551Z,2.13
2024-05-09T17:10:49.615Z,2.57
2024-05-09T17:13:20.436Z,1.87
2024-05-09T17:15:50.958Z,3.43
2024-05-09T17:18:21.253Z,3.70
2024-05-09T17:20:50.305Z,2.80
2024-05-09T17:23:20.170Z,3.50
2024-05-09T17:25:50.041Z,3.20
2024-05-09T17:28:20.358Z,2.70
2024-05-09T17:30:48.512Z,2.50
2024-05-09T17:33:18.704Z,2.60
2024-05-09T17:35:50.213Z,3.63
2024-05-09T17:38:23.010Z,2.67
2024-05-09T17:40:55.872Z,4.83
2024-05-09T17:43:23.319Z,3.57
2024-05-09T17:45:53.327Z,4.93
2024-05-09T17:48:20.858Z,3.40
2024-05-09T17:50:51.611Z,4.77
2024-05-09T17:53:20.118Z,2.97
2024-05-09T17:55:53.831Z,4.50
2024-05-09T17:58:23.863Z,2.00
2024-05-09T18:00:54.391Z,3.67
2024-05-09T18:03:24.564Z,7.40
2024-05-09T18:05:54.884Z,5.67
2024-05-09T18:08:22.185Z,10.53
2024-05-09T18:10:54.810Z,10.90
2024-05-09T18:13:26.268Z,15.40
2024-05-09T18:15:56.261Z,10.40
2024-05-09T18:18:23.627Z,9.38
2024-05-09T18:20:53.707Z,10.60
2024-05-09T18:23:20.995Z,11.83
2024-05-09T18:25:54.726Z,8.00
2024-05-09T18:28:24.916Z,9.70
2024-05-09T18:30:54.932Z,8.17
2024-05-09T18:33:22.288Z,8.63
2024-05-09T18:35:52.209Z,6.60
2024-05-09T18:38:20.676Z,6.60
2024-05-09T18:40:58.266Z,6.37
2024-05-09T18:43:35.200Z,8.73
2024-05-09T18:46:11.856Z,7.57
2024-05-09T18:48:39.219Z,4.63
2024-05-09T18:51:09.241Z,6.70
2024-05-09T18:53:40.142Z,7.50
2024-05-09T18:56:11.300Z,5.53
2024-05-09T18:58:45.027Z,5.93
2024-05-09T19:01:25.543Z,8.30
2024-05-09T19:03:56.290Z,5.20
2024-05-09T19:06:24.845Z,4.00
2024-05-09T19:08:54.825Z,5.83
2024-05-09T19:11:22.208Z,5.07
2024-05-09T19:13:54.688Z,6.67
2024-05-09T19:16:22.206Z,7.83
2024-05-09T19:18:53.905Z,7.07
2024-05-09T19:21:21.295Z,7.70
2024-05-09T19:23:52.469Z,6.37
2024-05-09T19:26:19.980Z,5.73
2024-05-09T19:28:49.803Z,5.53
2024-05-09T19:31:19.665Z,9.10
2024-05-09T19:33:49.690Z,5.57
2024-05-09T19:36:19.354Z,5.43
2024-05-09T19:38:51.403Z,4.93
2024-05-09T19:41:18.688Z,5.33
2024-05-09T19:43:48.538Z,9.03
2024-05-09T19:46:18.703Z,4.73
2024-05-09T19:48:48.817Z,7.00
2024-05-09T19:51:16.301Z,4.60
2024-05-09T19:53:46.114Z,4.50
2024-05-09T19:56:13.364Z,5.13
2024-05-09T19:58:43.159Z,6.63
2024-05-09T20:01:10.459Z,5.27
2024-05-09T20:03:43.217Z,5.37
2024-05-09T20:06:10.701Z,4.50
2024-05-09T20:08:40.519Z,4.87
2024-05-09T20:11:07.830Z,6.50
2024-05-09T20:13:37.629Z,7.13
2024-05-09T20:16:05.656Z,4.77
2024-05-09T20:18:35.613Z,4.37
2024-05-09T20:21:06.841Z,6.83
2024-05-09T20:23:37.137Z,3.93
2024-05-09T20:26:04.676Z,5.37
2024-05-09T20:28:34.679Z,5.20
2024-05-09T20:31:03.288Z,6.00
2024-05-09T20:33:33.282Z,4.17
2024-05-09T20:36:02.316Z,3.57
2024-05-09T20:38:35.130Z,5.10
2024-05-09T20:41:02.673Z,4.20
2024-05-09T20:43:32.598Z,6.27
2024-05-09T20:45:59.888Z,4.33
2024-05-09T20:48:29.800Z,4.43
2024-05-09T20:50:57.135Z,4.30
2024-05-09T20:53:27.012Z,3.40
2024-05-09T20:55:57.027Z,4.43
2024-05-09T20:58:26.998Z,4.23
2024-05-09T21:00:54.379Z,3.60
2024-05-09T21:03:24.289Z,3.50
2024-05-09T21:05:51.724Z,5.37
2024-05-09T21:08:22.756Z,4.93
2024-05-09T21:10:50.613Z,5.43
2024-05-09T21:13:23.277Z,6.27
2024-05-09T21:15:50.870Z,5.90
2024-05-09T21:18:20.905Z,6.73
2024-05-09T21:20:48.121Z,4.47
2024-05-09T21:23:17.961Z,3.77
2024-05-09T21:25:45.151Z,4.10
2024-05-09T21:28:15.221Z,4.83
2024-05-09T21:30:45.177Z,4.43
2024-05-09T21:33:15.491Z,4.10
2024-05-09T21:35:43.827Z,4.00
2024-05-09T21:38:14.603Z,3.83
2024-05-09T21:40:42.871Z,4.30
2024-05-09T21:43:12.917Z,4.17
2024-05-09T21:45:40.325Z,3.60
2024-05-09T21:48:15.755Z,3.90
2024-05-09T21:50:43.175Z,5.57
2024-05-09T21:53:13.839Z,5.10
2024-05-09T21:55:41.949Z,3.87
2024-05-09T21:58:11.934Z,4.63
2024-05-09T22:00:40.855Z,4.13
2024-05-09T22:03:14.030Z,3.83
2024-05-09T22:05:43.706Z,4.30
2024-05-09T22:08:13.732Z,4.90
2024-05-09T22:10:41.130Z,6.73
2024-05-09T22:13:11.299Z,4.97
2024-05-09T22:15:40.388Z,4.93
2024-05-09T22:18:13.507Z,6.07
2024-05-09T22:20:45.034Z,5.43
2024-05-09T22:23:16.373Z,4.03
2024-05-09T22:25:43.829Z,5.33
2024-05-09T22:28:16.944Z,5.23
2024-05-09T22:30:46.104Z,6.27
2024-05-09T22:33:19.248Z,8.40
2024-05-09T22:35:47.536Z,5.50
2024-05-09T22:38:17.384Z,9.83
2024-05-09T22:40:48.427Z,5.27
2024-05-09T22:43:23.700Z,6.77
2024-05-09T22:45:52.457Z,7.23
2024-05-09T22:48:25.701Z,5.03
2024-05-09T22:50:53.479Z,5.77
2024-05-09T22:53:25.620Z,7.73
2024-05-09T22:55:53.219Z,7.37
2024-05-09T22:58:24.018Z,6.03
2024-05-09T23:00:51.715Z,5.83
2024-05-09T23:03:24.476Z,7.23
2024-05-09T23:05:51.832Z,6.47
2024-05-09T23:08:21.685Z,5.37
2024-05-09T23:10:49.008Z,6.37
2024-05-09T23:13:19.173Z,6.43
2024-05-09T23:15:46.681Z,8.73
2024-05-09T23:18:16.665Z,7.70
2024-05-09T23:20:46.508Z,7.07
2024-05-09T23:23:16.381Z,6.57
2024-05-09T23:25:43.968Z,6.50
2024-05-09T23:28:13.973Z,7.20
2024-05-09T23:30:42.131Z,8.63
2024-05-09T23:33:14.329Z,6.17
2024-05-09T23:35:43.666Z,7.27
2024-05-09T23:38:16.881Z,9.00
2024-05-09T23:40:44.696Z,8.97
2024-05-09T23:43:15.048Z,8.20
2024-05-09T23:45:42.870Z,8.30
2024-05-09T23:48:13.315Z,6.20
2024-05-09T23:50:41.426Z,7.27
2024-05-09T23:53:11.676Z,6.97
2024-05-09T23:55:41.543Z,8.37
2024-05-09T23:58:11.606Z,7.73
